createdAt,value
2023-02-02T00:02:01.328Z,182.90
2023-02-02T00:04:31.474Z,170.57
2023-02-02T00:06:59.708Z,157.60
2023-02-02T00:09:29.091Z,156.13
2023-02-02T00:11:57.573Z,169.70
2023-02-02T00:14:25.266Z,163.83
2023-02-02T00:16:55.161Z,182.83
2023-02-02T00:19:26.275Z,168.93
2023-02-02T00:21:54.624Z,166.47
2023-02-02T00:24:23.055Z,159.43
2023-02-02T00:26:52.733Z,151.37
2023-02-02T00:29:24.007Z,162.60
2023-02-02T00:31:52.411Z,168.33
2023-02-02T00:34:22.732Z,153.00
2023-02-02T00:36:51.243Z,160.90
2023-02-02T00:39:21.258Z,166.37
2023-02-02T00:41:50.078Z,164.67
2023-02-02T00:44:35.763Z,154.10
2023-02-02T00:47:03.694Z,147.00
2023-02-02T00:49:32.858Z,156.03
2023-02-02T00:52:00.911Z,166.77
2023-02-02T00:54:28.589Z,167.87
2023-02-02T00:56:56.278Z,161.67
2023-02-02T00:59:23.941Z,176.50
2023-02-02T01:01:51.600Z,158.23
2023-02-02T01:04:19.268Z,160.43
2023-02-02T01:06:48.838Z,164.53
2023-02-02T01:09:16.514Z,164.93
2023-02-02T01:11:44.188Z,178.10
2023-02-02T01:14:12.093Z,176.40
2023-02-02T01:16:40.043Z,172.37
2023-02-02T01:19:07.980Z,175.13
2023-02-02T01:21:35.786Z,169.83
2023-02-02T01:24:04.986Z,168.50
2023-02-02T01:26:32.651Z,151.07
2023-02-02T01:29:00.276Z,161.00
2023-02-02T01:31:27.938Z,158.97
2023-02-02T01:33:56.231Z,153.47
2023-02-02T01:36:25.486Z,167.67
2023-02-02T01:38:53.158Z,155.63
2023-02-02T01:41:23.828Z,167.57
2023-02-02T01:43:55.228Z,164.80
2023-02-02T01:46:25.312Z,153.93
2023-02-02T01:49:00.598Z,163.53
2023-02-02T01:51:36.084Z,187.83
2023-02-02T01:54:07.027Z,156.57
2023-02-02T01:56:40.642Z,167.47
2023-02-02T01:59:09.240Z,173.10
2023-02-02T02:01:37.003Z,187.50
2023-02-02T02:04:04.927Z,171.50
2023-02-02T02:06:32.897Z,161.97
2023-02-02T02:09:04.727Z,167.03
2023-02-02T02:11:33.725Z,160.27
2023-02-02T02:14:24.204Z,152.37
2023-02-02T02:17:02.063Z,145.37
2023-02-02T02:20:25.325Z,153.53
2023-02-02T02:23:30.924Z,135.40
2023-02-02T02:26:37.667Z,143.23
2023-02-02T02:29:22.810Z,149.07
2023-02-02T02:32:19.478Z,141.47
2023-02-02T02:34:56.131Z,155.70
2023-02-02T02:37:32.573Z,157.23
2023-02-02T02:40:06.750Z,158.13
2023-02-02T02:42:38.495Z,151.87
2023-02-02T02:45:08.711Z,152.10
2023-02-02T02:47:38.917Z,158.00
2023-02-02T02:50:07.251Z,157.83
2023-02-02T02:52:37.307Z,164.53
2023-02-02T02:55:07.814Z,168.13
2023-02-02T02:57:45.191Z,168.10
2023-02-02T03:00:26.808Z,173.03
2023-02-02T03:03:01.230Z,153.43
2023-02-02T03:05:35.052Z,155.53
2023-02-02T03:08:10.931Z,161.67
2023-02-02T03:10:41.293Z,149.90
2023-02-02T03:13:11.330Z,162.97
2023-02-02T03:15:44.707Z,161.73
2023-02-02T03:18:16.380Z,156.37
2023-02-02T03:20:46.105Z,175.93
2023-02-02T03:23:14.072Z,165.17
2023-02-02T03:25:42.300Z,172.57
2023-02-02T03:28:10.154Z,172.57
2023-02-02T03:30:39.307Z,155.70
2023-02-02T03:33:07.664Z,157.53
2023-02-02T03:35:36.743Z,169.57
2023-02-02T03:38:04.733Z,147.03
2023-02-02T03:40:32.359Z,163.20
2023-02-02T03:43:00.056Z,164.77
2023-02-02T03:45:28.576Z,153.20
2023-02-02T03:47:56.212Z,160.43
2023-02-02T03:50:25.142Z,162.57
2023-02-02T03:52:55.069Z,164.47
2023-02-02T03:55:23.003Z,157.27
2023-02-02T03:57:50.821Z,157.57
2023-02-02T04:00:19.120Z,159.10
2023-02-02T04:02:46.944Z,160.57
2023-02-02T04:05:14.869Z,170.40
2023-02-02T04:07:42.564Z,161.63
2023-02-02T04:10:12.535Z,156.07
2023-02-02T04:12:40.277Z,156.73
2023-02-02T04:15:09.288Z,150.57
2023-02-02T04:17:37.128Z,151.87
2023-02-02T04:20:06.323Z,163.37
2023-02-02T04:22:34.143Z,154.60
2023-02-02T04:25:01.735Z,170.40
2023-02-02T04:27:32.557Z,170.33
2023-02-02T04:30:00.269Z,163.90
2023-02-02T04:32:27.926Z,173.20
2023-02-02T04:34:55.532Z,154.33
2023-02-02T04:37:23.194Z,176.07
2023-02-02T04:39:50.885Z,175.60
2023-02-02T04:42:18.529Z,165.53
2023-02-02T04:44:47.588Z,163.00
2023-02-02T04:47:15.256Z,173.57
2023-02-02T04:49:42.910Z,163.47
2023-02-02T04:52:12.068Z,170.33
2023-02-02T04:54:39.753Z,167.97
2023-02-02T04:57:07.405Z,174.60
2023-02-02T04:59:35.070Z,163.07
2023-02-02T05:02:04.776Z,168.43
2023-02-02T05:04:32.622Z,167.63
2023-02-02T05:07:00.270Z,145.97
2023-02-02T05:09:28.114Z,171.10
2023-02-02T05:11:55.817Z,166.70
2023-02-02T05:14:23.664Z,163.53
2023-02-02T05:16:51.356Z,159.10
2023-02-02T05:19:20.422Z,160.07
2023-02-02T05:21:51.150Z,166.90
2023-02-02T05:24:18.885Z,161.27
2023-02-02T05:26:47.001Z,162.00
2023-02-02T05:29:14.627Z,158.27
2023-02-02T05:31:42.401Z,169.67
2023-02-02T05:34:11.409Z,161.47
2023-02-02T05:36:40.456Z,159.07
2023-02-02T05:39:08.106Z,175.30
2023-02-02T05:41:35.777Z,159.67
2023-02-02T05:44:04.006Z,169.93
2023-02-02T05:46:31.970Z,166.17
2023-02-02T05:48:59.647Z,178.90
2023-02-02T05:51:30.568Z,167.43
2023-02-02T05:54:01.027Z,169.37
2023-02-02T05:56:28.969Z,165.37
2023-02-02T05:58:56.603Z,173.23
2023-02-02T06:01:24.375Z,174.40
2023-02-02T06:03:52.214Z,176.90
2023-02-02T06:06:19.925Z,185.97
2023-02-02T06:08:47.593Z,180.53
2023-02-02T06:11:18.378Z,171.83
2023-02-02T06:13:46.553Z,181.17
2023-02-02T06:16:14.594Z,179.27
2023-02-02T06:18:42.496Z,184.93
2023-02-02T06:21:11.046Z,179.00
2023-02-02T06:23:43.397Z,185.50
2023-02-02T06:26:11.002Z,187.37
2023-02-02T06:28:39.979Z,188.67
2023-02-02T06:31:08.974Z,171.23
2023-02-02T06:33:36.917Z,165.93
2023-02-02T06:36:07.310Z,178.17
2023-02-02T06:38:35.311Z,195.40
2023-02-02T06:41:03.745Z,175.40
2023-02-02T06:43:31.475Z,183.17
2023-02-02T06:46:00.598Z,171.07
2023-02-02T06:48:28.586Z,178.10
2023-02-02T06:50:59.242Z,177.93
2023-02-02T06:53:27.120Z,186.77
2023-02-02T06:55:55.503Z,191.37
2023-02-02T06:58:23.748Z,174.87
2023-02-02T07:00:51.678Z,182.13
2023-02-02T07:03:21.983Z,187.73
2023-02-02T07:05:50.158Z,179.73
2023-02-02T07:08:18.134Z,185.43
2023-02-02T07:11:12.943Z,184.87
2023-02-02T07:13:33.568Z,172.17
2023-02-02T07:16:01.291Z,174.73
2023-02-02T07:18:30.443Z,194.17
2023-02-02T07:21:00.106Z,184.33
2023-02-02T07:23:27.802Z,173.47
2023-02-02T07:26:02.874Z,187.27
2023-02-02T07:28:30.866Z,178.73
2023-02-02T07:30:58.703Z,169.37
2023-02-02T07:33:26.377Z,165.83
2023-02-02T07:35:55.410Z,171.10
2023-02-02T07:38:23.029Z,191.43
2023-02-02T07:40:50.693Z,175.23
2023-02-02T07:43:19.302Z,171.93
2023-02-02T07:45:46.895Z,182.53
2023-02-02T07:48:14.573Z,178.27
2023-02-02T07:50:42.217Z,183.97
2023-02-02T07:53:11.253Z,163.87
2023-02-02T07:55:38.910Z,178.47
2023-02-02T07:58:07.778Z,168.80
2023-02-02T08:00:35.485Z,172.90
2023-02-02T08:03:03.283Z,167.73
2023-02-02T08:05:32.010Z,168.90
2023-02-02T08:07:59.636Z,177.43
2023-02-02T08:10:28.648Z,176.27
2023-02-02T08:12:56.354Z,173.33
2023-02-02T08:15:24.135Z,194.07
2023-02-02T08:17:52.074Z,181.37
2023-02-02T08:20:20.546Z,175.97
2023-02-02T08:22:48.192Z,177.47
2023-02-02T08:25:15.892Z,182.67
2023-02-02T08:27:44.920Z,192.67
2023-02-02T08:30:13.644Z,192.43
2023-02-02T08:32:41.354Z,187.37
2023-02-02T08:35:09.403Z,193.90
2023-02-02T08:37:36.979Z,205.63
2023-02-02T08:40:05.266Z,185.77
2023-02-02T08:42:32.909Z,184.00
2023-02-02T08:46:07.791Z,186.00
2023-02-02T08:47:56.081Z,190.73
2023-02-02T08:50:33.640Z,182.17
2023-02-02T08:53:01.261Z,193.00
2023-02-02T08:55:28.967Z,187.13
2023-02-02T08:57:57.160Z,200.03
2023-02-02T09:00:26.500Z,207.83
2023-02-02T09:02:54.138Z,208.10
2023-02-02T09:05:21.865Z,193.43
2023-02-02T09:07:49.485Z,212.20
2023-02-02T09:10:17.750Z,195.47
2023-02-02T09:12:45.435Z,190.00
2023-02-02T09:15:13.546Z,204.53
2023-02-02T09:17:42.530Z,194.00
2023-02-02T09:20:11.290Z,202.10
2023-02-02T09:22:38.954Z,216.10
2023-02-02T09:25:07.289Z,190.97
2023-02-02T09:27:38.401Z,213.30
2023-02-02T09:30:06.715Z,212.77
2023-02-02T09:32:34.392Z,188.40
2023-02-02T09:35:03.526Z,208.20
2023-02-02T09:37:31.397Z,207.47
2023-02-02T09:39:59.075Z,204.13
2023-02-02T09:42:56.302Z,213.20
2023-02-02T09:45:29.247Z,184.50
2023-02-02T09:48:05.213Z,195.33
2023-02-02T09:50:44.476Z,190.53
2023-02-02T09:53:19.230Z,200.03
2023-02-02T09:55:49.557Z,207.00
2023-02-02T09:58:21.416Z,198.80
2023-02-02T10:00:56.221Z,198.77
2023-02-02T10:03:30.075Z,206.87
2023-02-02T10:06:08.677Z,204.30
2023-02-02T10:08:42.351Z,205.20
2023-02-02T10:11:30.640Z,194.60
2023-02-02T10:14:03.678Z,195.70
2023-02-02T10:16:34.415Z,208.73
2023-02-02T10:19:05.371Z,202.20
2023-02-02T10:21:40.853Z,196.47
2023-02-02T10:24:18.699Z,198.73
2023-02-02T10:26:49.138Z,194.67
2023-02-02T10:29:19.452Z,204.93
2023-02-02T10:32:02.798Z,209.83
2023-02-02T10:34:38.458Z,204.37
2023-02-02T10:37:20.750Z,194.57
2023-02-02T10:40:03.563Z,208.60
2023-02-02T10:42:42.649Z,214.23
2023-02-02T10:45:15.603Z,192.87
2023-02-02T10:47:43.548Z,203.63
2023-02-02T10:50:19.049Z,200.03
2023-02-02T10:52:51.179Z,195.67
2023-02-02T10:55:27.229Z,209.17
2023-02-02T10:58:05.769Z,184.07
2023-02-02T11:00:39.072Z,211.33
2023-02-02T11:03:09.571Z,203.37
2023-02-02T11:05:55.057Z,200.83
2023-02-02T11:08:33.304Z,183.37
2023-02-02T11:11:12.140Z,184.40
2023-02-02T11:13:43.753Z,189.50
2023-02-02T11:16:21.186Z,200.50
2023-02-02T11:18:49.613Z,187.30
2023-02-02T11:21:20.834Z,185.87
2023-02-02T11:23:55.714Z,195.40
2023-02-02T11:26:24.520Z,218.70
2023-02-02T11:28:55.253Z,200.27
2023-02-02T11:31:33.736Z,194.50
2023-02-02T11:34:20.468Z,211.70
2023-02-02T11:37:12.604Z,195.67
2023-02-02T11:39:42.408Z,197.77
2023-02-02T11:42:16.073Z,208.00
2023-02-02T11:44:47.578Z,199.70
2023-02-02T11:47:22.216Z,216.07
2023-02-02T11:49:51.607Z,212.20
2023-02-02T11:52:23.123Z,206.70
2023-02-02T11:54:53.940Z,214.13
2023-02-02T11:57:23.565Z,216.23
2023-02-02T11:59:53.858Z,210.53
2023-02-02T12:02:31.001Z,224.20
2023-02-02T12:05:29.673Z,219.17
2023-02-02T12:07:57.330Z,193.00
2023-02-02T12:10:32.456Z,206.03
2023-02-02T12:13:08.218Z,214.10
2023-02-02T12:15:46.366Z,208.13
2023-02-02T12:18:32.593Z,236.77
2023-02-02T12:21:05.519Z,218.27
2023-02-02T12:23:52.309Z,211.60
2023-02-02T12:26:24.974Z,226.40
2023-02-02T12:29:25.804Z,213.50
2023-02-02T12:32:14.919Z,198.03
2023-02-02T12:34:54.376Z,205.53
2023-02-02T12:37:35.568Z,229.07
2023-02-02T12:40:15.527Z,231.77
2023-02-02T12:42:56.869Z,233.40
2023-02-02T12:45:43.951Z,229.70
2023-02-02T12:48:25.795Z,219.43
2023-02-02T12:51:07.139Z,229.50
2023-02-02T12:54:33.484Z,228.27
2023-02-02T12:56:46.075Z,223.67
2023-02-02T12:59:24.015Z,225.30
2023-02-02T13:02:04.471Z,213.23
2023-02-02T13:04:54.534Z,212.93
2023-02-02T13:07:33.095Z,221.23
2023-02-02T13:10:09.873Z,229.90
2023-02-02T13:12:43.282Z,238.73
2023-02-02T13:15:15.972Z,244.27
2023-02-02T13:17:47.852Z,243.30
2023-02-02T13:20:22.610Z,223.53
2023-02-02T13:22:54.110Z,227.87
2023-02-02T13:25:28.129Z,244.10
2023-02-02T13:27:59.122Z,242.57
2023-02-02T13:30:34.043Z,250.57
2023-02-02T13:33:06.309Z,236.10
2023-02-02T13:35:41.234Z,245.20
2023-02-02T13:38:18.962Z,258.60
2023-02-02T13:40:47.057Z,249.93
2023-02-02T13:43:26.399Z,254.27
2023-02-02T13:46:07.538Z,269.97
2023-02-02T13:48:43.423Z,260.63
2023-02-02T13:51:32.776Z,248.93
2023-02-02T13:54:28.597Z,248.17
2023-02-02T13:57:05.940Z,249.37
2023-02-02T13:59:51.979Z,246.67
2023-02-02T14:02:27.809Z,250.43
2023-02-02T14:04:58.646Z,248.27
2023-02-02T14:07:32.170Z,264.50
2023-02-02T14:10:00.529Z,249.93
2023-02-02T14:12:31.519Z,255.37
2023-02-02T14:14:59.089Z,252.05
2023-02-02T14:17:53.324Z,264.80
2023-02-02T14:20:51.256Z,257.00
2023-02-02T14:23:51.572Z,259.17
2023-02-02T14:26:41.625Z,266.73
2023-02-02T14:29:36.620Z,268.63
2023-02-02T14:32:25.040Z,266.10
2023-02-02T14:34:55.251Z,242.20
2023-02-02T14:37:42.640Z,264.13
2023-02-02T14:40:27.760Z,259.23
2023-02-02T14:43:24.239Z,269.07
2023-02-02T14:46:24.736Z,266.47
2023-02-02T14:49:10.219Z,248.53
2023-02-02T14:51:49.537Z,243.47
2023-02-02T14:54:24.232Z,258.20
2023-02-02T14:56:56.077Z,278.60
2023-02-02T14:59:27.563Z,263.37
2023-02-02T15:02:01.995Z,258.03
2023-02-02T15:04:31.227Z,286.37
2023-02-02T15:07:51.191Z,273.90
2023-02-02T15:10:53.789Z,257.60
2023-02-02T15:13:22.941Z,262.43
2023-02-02T15:15:59.201Z,262.40
2023-02-02T15:18:33.140Z,271.00
2023-02-02T15:21:05.983Z,278.73
2023-02-02T15:23:41.621Z,269.75
2023-02-02T15:26:16.221Z,275.77
2023-02-02T15:28:49.736Z,295.87
2023-02-02T15:31:24.169Z,273.00
2023-02-02T15:33:54.927Z,259.92
2023-02-02T15:36:26.165Z,285.87
2023-02-02T15:38:59.336Z,272.67
2023-02-02T15:41:33.096Z,263.83
2023-02-02T15:44:00.847Z,279.97
2023-02-02T15:46:32.336Z,258.83
2023-02-02T15:49:32.785Z,269.83
2023-02-02T15:52:05.126Z,269.60
2023-02-02T15:54:37.937Z,263.27
2023-02-02T15:57:24.042Z,273.70
2023-02-02T15:59:51.763Z,257.53
2023-02-02T16:02:24.148Z,261.73
2023-02-02T16:04:51.807Z,261.97
2023-02-02T16:07:24.055Z,284.98
2023-02-02T16:09:53.766Z,277.57
2023-02-02T16:12:23.549Z,270.13
2023-02-02T16:14:53.494Z,285.45
2023-02-02T16:17:23.085Z,280.57
2023-02-02T16:19:52.241Z,282.80
2023-02-02T16:22:25.328Z,273.33
2023-02-02T16:24:58.014Z,271.37
2023-02-02T16:27:28.055Z,269.70
2023-02-02T16:29:59.342Z,243.83
2023-02-02T16:32:29.239Z,255.77
2023-02-02T16:34:57.177Z,264.50
2023-02-02T16:37:27.330Z,239.90
2023-02-02T16:39:58.318Z,231.97
2023-02-02T16:42:36.227Z,241.03
2023-02-02T16:45:04.038Z,219.60
2023-02-02T16:47:37.797Z,228.73
2023-02-02T16:50:26.077Z,203.63
2023-02-02T16:52:56.175Z,199.30
2023-02-02T16:55:29.711Z,174.63
2023-02-02T16:58:04.873Z,191.40
2023-02-02T17:00:33.436Z,182.63
2023-02-02T17:03:05.340Z,187.00
2023-02-02T17:05:37.282Z,196.03
2023-02-02T17:08:07.884Z,182.13
2023-02-02T17:10:38.683Z,186.67
2023-02-02T17:13:39.076Z,210.40
2023-02-02T17:16:06.968Z,202.40
2023-02-02T17:18:34.712Z,194.13
2023-02-02T17:21:07.878Z,187.47
2023-02-02T17:23:38.564Z,197.83
2023-02-02T17:26:09.840Z,213.03
2023-02-02T17:28:39.603Z,220.37
2023-02-02T17:31:10.169Z,212.87
2023-02-02T17:33:38.227Z,217.87
2023-02-02T17:36:06.726Z,224.23
2023-02-02T17:38:34.369Z,222.80
2023-02-02T17:41:04.101Z,213.43
2023-02-02T17:43:34.451Z,230.63
2023-02-02T17:46:04.120Z,215.77
2023-02-02T17:48:31.983Z,227.97
2023-02-02T17:50:59.751Z,230.93
2023-02-02T17:53:32.103Z,231.57
2023-02-02T17:56:01.018Z,204.77
2023-02-02T17:58:28.688Z,228.10
2023-02-02T18:00:58.971Z,206.27
2023-02-02T18:03:30.879Z,211.97
2023-02-02T18:06:01.476Z,206.37
2023-02-02T18:08:29.823Z,223.67
2023-02-02T18:10:57.752Z,204.43
2023-02-02T18:13:25.451Z,210.53
2023-02-02T18:15:54.998Z,223.43
2023-02-02T18:18:24.376Z,220.53
2023-02-02T18:20:52.360Z,185.00
2023-02-02T18:23:20.475Z,229.10
2023-02-02T18:25:48.308Z,218.13
2023-02-02T18:28:18.015Z,198.47
2023-02-02T18:30:46.460Z,236.10
2023-02-02T18:33:17.242Z,220.80
2023-02-02T18:35:47.952Z,213.83
2023-02-02T18:38:15.916Z,221.03
2023-02-02T18:40:43.665Z,210.43
2023-02-02T18:43:11.388Z,222.20
2023-02-02T18:45:39.042Z,227.33
2023-02-02T18:48:06.899Z,209.60
2023-02-02T18:50:34.614Z,231.33
2023-02-02T18:53:03.659Z,235.20
2023-02-02T18:55:32.317Z,231.70
2023-02-02T18:57:59.931Z,242.97
2023-02-02T19:00:27.651Z,232.60
2023-02-02T19:02:55.381Z,233.20
2023-02-02T19:05:40.580Z,232.90
2023-02-02T19:08:09.607Z,213.53
2023-02-02T19:10:37.361Z,233.57
2023-02-02T19:13:19.161Z,237.47
2023-02-02T19:15:48.357Z,228.80
2023-02-02T19:18:18.467Z,245.67
2023-02-02T19:20:47.346Z,231.47
2023-02-02T19:23:18.742Z,240.47
2023-02-02T19:25:51.266Z,235.87
2023-02-02T19:28:22.935Z,235.10
2023-02-02T19:30:52.237Z,230.63
2023-02-02T19:33:20.413Z,239.23
2023-02-02T19:35:52.956Z,232.97
2023-02-02T19:38:22.756Z,211.10
2023-02-02T19:40:50.422Z,224.60
2023-02-02T19:43:25.327Z,207.93
2023-02-02T19:45:53.877Z,208.27
2023-02-02T19:48:25.757Z,223.47
2023-02-02T19:50:54.775Z,193.60
2023-02-02T19:53:28.090Z,201.07
2023-02-02T19:55:55.784Z,179.27
2023-02-02T19:58:25.798Z,181.40
2023-02-02T20:00:55.654Z,195.13
2023-02-02T20:03:25.067Z,213.57
2023-02-02T20:05:54.509Z,178.40
2023-02-02T20:08:26.257Z,188.00
2023-02-02T20:10:55.451Z,174.80
2023-02-02T20:13:25.935Z,180.37
2023-02-02T20:16:03.611Z,193.07
2023-02-02T20:18:41.156Z,173.00
2023-02-02T20:21:18.396Z,178.47
2023-02-02T20:23:47.529Z,180.23
2023-02-02T20:26:23.772Z,197.37
2023-02-02T20:28:53.594Z,191.20
2023-02-02T20:31:23.218Z,183.23
2023-02-02T20:33:54.434Z,181.63
2023-02-02T20:36:35.325Z,172.87
2023-02-02T20:39:22.736Z,186.23
2023-02-02T20:41:50.717Z,168.93
2023-02-02T20:44:18.379Z,173.20
2023-02-02T20:46:46.062Z,163.97
2023-02-02T20:49:14.138Z,174.90
2023-02-02T20:51:41.816Z,176.40
2023-02-02T20:54:11.371Z,175.57
2023-02-02T20:56:39.281Z,180.93
2023-02-02T20:59:07.488Z,189.53
2023-02-02T21:01:35.277Z,169.63
2023-02-02T21:04:05.327Z,179.43
2023-02-02T21:06:33.031Z,187.20
2023-02-02T21:09:00.678Z,168.30
2023-02-02T21:11:29.757Z,171.20
2023-02-02T21:13:57.515Z,181.47
2023-02-02T21:16:25.920Z,169.77
2023-02-02T21:18:53.939Z,174.77
2023-02-02T21:21:22.536Z,170.17
2023-02-02T21:23:51.524Z,187.33
2023-02-02T21:26:22.132Z,170.67
2023-02-02T21:28:51.186Z,169.67
2023-02-02T21:31:19.152Z,172.73
2023-02-02T21:33:48.485Z,177.30
2023-02-02T21:36:29.907Z,175.53
2023-02-02T21:39:03.021Z,174.53
2023-02-02T21:41:33.074Z,170.53
2023-02-02T21:44:02.112Z,168.67
2023-02-02T21:46:36.455Z,176.00
2023-02-02T21:49:04.682Z,192.40
2023-02-02T21:51:35.755Z,173.33
2023-02-02T21:54:18.641Z,176.57
2023-02-02T21:56:46.353Z,190.03
2023-02-02T21:59:17.459Z,176.73
2023-02-02T22:01:47.023Z,179.97
2023-02-02T22:04:21.697Z,194.23
2023-02-02T22:06:51.475Z,183.60
2023-02-02T22:09:22.347Z,184.97
2023-02-02T22:11:53.059Z,188.70
2023-02-02T22:14:26.733Z,194.73
2023-02-02T22:16:58.480Z,169.63
2023-02-02T22:19:30.082Z,179.90
2023-02-02T22:22:11.884Z,174.30
2023-02-02T22:24:39.871Z,183.53
2023-02-02T22:27:18.195Z,183.73
2023-02-02T22:29:47.468Z,196.40
2023-02-02T22:32:15.194Z,184.40
2023-02-02T22:34:42.894Z,183.80
2023-02-02T22:37:10.522Z,195.20
2023-02-02T22:39:42.624Z,191.90
2023-02-02T22:42:10.836Z,208.63
2023-02-02T22:44:38.515Z,208.50
2023-02-02T22:47:07.500Z,186.80
2023-02-02T22:49:35.187Z,187.60
2023-02-02T22:52:02.838Z,196.63
2023-02-02T22:54:30.973Z,190.53
2023-02-02T22:56:58.603Z,207.63
2023-02-02T22:59:26.288Z,205.40
2023-02-02T23:01:53.889Z,184.23
2023-02-02T23:04:22.866Z,201.23
2023-02-02T23:06:50.540Z,185.17
2023-02-02T23:09:18.277Z,188.17
2023-02-02T23:11:48.040Z,219.80
2023-02-02T23:14:16.792Z,198.37
2023-02-02T23:16:44.605Z,191.37
2023-02-02T23:19:12.234Z,193.77
2023-02-02T23:21:41.233Z,181.17
2023-02-02T23:24:09.595Z,196.20
2023-02-02T23:26:37.374Z,193.53
2023-02-02T23:29:05.097Z,193.83
2023-02-02T23:31:32.916Z,199.50
2023-02-02T23:34:00.756Z,195.50
2023-02-02T23:36:28.428Z,205.87
2023-02-02T23:38:57.432Z,198.30
2023-02-02T23:41:25.164Z,206.37
2023-02-02T23:43:53.078Z,207.27
2023-02-02T23:46:21.006Z,211.57
2023-02-02T23:48:48.798Z,207.27
2023-02-02T23:51:16.522Z,198.60
2023-02-02T23:53:44.843Z,202.27
2023-02-02T23:56:13.808Z,195.03
2023-02-02T23:58:41.430Z,199.37
